Time;durP1;ratioP1;P1;durP2;ratioP2;P2;SDS_P1;SDS_P2;PMS_P1;PMS_P2;Temp;Humidity;BMP_temperature;BMP_pressure;BME280_temperature;BME280_humidity;BME280_pressure;Samples;Min_cycle;Max_cycle;Signal;HPM_P1;HPM_P2
2021/01/19 00:01:16;;;;;;;8.68;3.90;;;10.00;64.00;;;;;;2090599;28;20033;-60
2021/01/19 00:02:37;;;;;;;9.00;4.13;;;10.00;64.00;;;;;;2094497;28;20128;-60
2021/01/19 00:03:58;;;;;;;5.85;3.22;;;10.00;63.90;;;;;;2085399;28;20033;-59
2021/01/19 00:05:18;;;;;;;9.30;3.83;;;10.00;63.80;;;;;;2084390;28;20439;-60
2021/01/19 00:06:39;;;;;;;4.85;3.53;;;10.00;63.80;;;;;;2091627;28;20060;-59
2021/01/19 00:08:01;;;;;;;9.52;4.05;;;10.00;63.60;;;;;;2095997;28;20064;-60
2021/01/19 00:09:22;;;;;;;9.85;3.92;;;10.00;63.60;;;;;;2085262;28;20044;-60
2021/01/19 00:10:43;;;;;;;8.85;3.30;;;10.00;63.60;;;;;;2089766;28;20025;-60
2021/01/19 00:12:04;;;;;;;7.30;3.58;;;10.00;63.50;;;;;;2088985;28;20513;-60
2021/01/19 00:13:24;;;;;;;8.68;3.50;;;10.00;63.50;;;;;;2086054;28;20021;-59
2021/01/19 00:14:45;;;;;;;8.25;3.55;;;10.00;63.40;;;;;;2089567;28;20033;-60
2021/01/19 00:16:06;;;;;;;4.70;2.97;;;10.00;63.30;;;;;;2087635;28;20028;-59
2021/01/19 00:17:27;;;;;;;7.03;3.90;;;10.00;63.30;;;;;;2089169;28;20032;-60
2021/01/19 00:18:48;;;;;;;7.32;3.15;;;10.00;63.20;;;;;;2089846;28;20040;-60
2021/01/19 00:20:10;;;;;;;7.88;3.10;;;10.00;63.20;;;;;;2086675;28;20031;-60
2021/01/19 00:21:30;;;;;;;6.95;2.92;;;10.00;63.10;;;;;;2085627;28;20415;-59
2021/01/19 00:22:51;;;;;;;4.75;3.33;;;10.00;63.00;;;;;;2088818;28;20044;-60
2021/01/19 00:24:12;;;;;;;6.68;3.13;;;10.00;63.00;;;;;;2085132;28;20460;-61
2021/01/19 00:25:36;;;;;;;5.35;3.00;;;10.00;63.00;;;;;;2089713;28;20104;-61
2021/01/19 00:26:57;;;;;;;5.82;2.90;;;10.00;62.90;;;;;;2081889;28;20128;-60
2021/01/19 00:28:18;;;;;;;6.25;3.10;;;10.00;62.90;;;;;;2085985;28;20017;-60
2021/01/19 00:29:39;;;;;;;7.93;3.45;;;10.00;62.90;;;;;;2088243;28;20021;-60
2021/01/19 00:31:00;;;;;;;4.45;3.03;;;10.00;62.80;;;;;;2089483;28;20021;-61
2021/01/19 00:32:21;;;;;;;5.25;3.05;;;10.00;62.60;;;;;;2092921;28;20415;-60
2021/01/19 00:33:41;;;;;;;5.93;3.00;;;10.00;62.70;;;;;;2080348;28;20026;-60
2021/01/19 00:35:03;;;;;;;6.53;3.13;;;10.00;62.70;;;;;;2085744;28;20468;-60
2021/01/19 00:36:24;;;;;;;5.03;3.20;;;10.00;62.70;;;;;;2091419;28;20013;-60
2021/01/19 00:37:44;;;;;;;5.28;3.00;;;10.00;62.60;;;;;;2092783;28;20033;-61
2021/01/19 00:39:05;;;;;;;8.88;3.17;;;10.00;62.60;;;;;;2083561;28;20030;-61
2021/01/19 00:40:27;;;;;;;5.25;3.30;;;10.00;62.60;;;;;;2085917;28;20017;-61
2021/01/19 00:41:48;;;;;;;6.25;3.13;;;10.00;62.60;;;;;;2089855;28;20135;-60
2021/01/19 00:43:09;;;;;;;6.50;3.15;;;10.00;62.60;;;;;;2090048;28;20029;-60
2021/01/19 00:44:30;;;;;;;6.13;3.10;;;10.00;62.50;;;;;;2090265;28;20038;-60
2021/01/19 00:45:51;;;;;;;5.43;3.00;;;10.00;62.60;;;;;;2090939;28;20034;-60
2021/01/19 00:47:12;;;;;;;4.60;2.83;;;10.00;62.60;;;;;;2089018;28;20052;-61
2021/01/19 00:48:33;;;;;;;8.20;3.17;;;10.00;62.50;;;;;;2090028;28;20128;-60
2021/01/19 00:49:54;;;;;;;5.82;2.95;;;10.00;62.40;;;;;;2089910;28;20536;-61
2021/01/19 00:51:15;;;;;;;4.97;2.90;;;10.00;62.40;;;;;;2084187;28;20033;-60
2021/01/19 00:52:36;;;;;;;4.57;2.90;;;10.00;62.40;;;;;;2089499;28;20024;-61
2021/01/19 00:53:57;;;;;;;5.55;3.20;;;10.00;62.20;;;;;;2086658;28;20345;-60
2021/01/19 00:55:18;;;;;;;3.65;2.90;;;10.00;62.30;;;;;;2086693;28;20033;-61
2021/01/19 00:56:41;;;;;;;7.18;2.88;;;10.00;62.20;;;;;;2089829;28;20021;-60
2021/01/19 00:58:02;;;;;;;4.80;2.75;;;10.00;62.20;;;;;;2096565;28;20035;-60
2021/01/19 00:59:23;;;;;;;6.10;2.75;;;10.00;61.90;;;;;;2089901;28;20036;-60
2021/01/19 01:00:44;;;;;;;7.55;2.75;;;10.00;61.90;;;;;;2090745;28;20040;-61
2021/01/19 01:02:05;;;;;;;6.60;2.90;;;10.00;62.00;;;;;;2085656;28;20057;-61
2021/01/19 01:03:29;;;;;;;5.28;2.47;;;10.00;61.90;;;;;;2085035;28;20516;-61
2021/01/19 01:04:50;;;;;;;6.20;3.20;;;10.00;61.90;;;;;;2092284;28;20782;-60
2021/01/19 01:06:15;;;;;;;4.97;2.83;;;10.00;61.80;;;;;;2092387;28;20032;-61
2021/01/19 01:07:38;;;;;;;6.10;2.80;;;10.00;61.70;;;;;;2094671;28;20032;-61
2021/01/19 01:08:59;;;;;;;4.88;2.60;;;10.00;61.70;;;;;;2091470;28;20036;-61
2021/01/19 01:10:20;;;;;;;4.07;2.60;;;10.00;61.70;;;;;;2091348;28;20097;-61
2021/01/19 01:11:43;;;;;;;4.05;2.85;;;10.00;61.60;;;;;;2093545;28;20355;-61
2021/01/19 01:13:04;;;;;;;5.70;2.42;;;10.00;61.40;;;;;;2093904;28;20422;-61
2021/01/19 01:14:25;;;;;;;7.10;3.13;;;9.90;61.40;;;;;;2086484;28;20029;-61
2021/01/19 01:15:46;;;;;;;3.75;2.50;;;9.90;61.40;;;;;;2091554;28;20025;-61
2021/01/19 01:17:07;;;;;;;5.75;2.42;;;10.00;61.50;;;;;;2084802;28;20088;-61
2021/01/19 01:18:30;;;;;;;4.28;2.60;;;9.90;61.40;;;;;;2095353;28;20021;-61
2021/01/19 01:19:51;;;;;;;5.13;2.80;;;9.90;61.50;;;;;;2097095;28;20028;-61
2021/01/19 01:21:12;;;;;;;4.43;2.28;;;9.90;61.50;;;;;;2091742;28;20083;-60
2021/01/19 01:22:59;;;;;;;6.97;2.60;;;10.00;61.60;;;;;;2091630;28;20452;-61
2021/01/19 01:24:20;;;;;;;4.72;2.25;;;9.90;61.20;;;;;;2093006;28;20036;-61
2021/01/19 01:25:41;;;;;;;6.78;2.80;;;10.00;61.50;;;;;;2092170;28;20025;-61
2021/01/19 01:27:02;;;;;;;3.58;2.22;;;10.00;61.30;;;;;;2091293;28;20033;-60
2021/01/19 01:28:23;;;;;;;8.43;2.88;;;10.00;61.10;;;;;;2091422;28;20467;-60
2021/01/19 01:29:44;;;;;;;4.05;2.42;;;10.00;61.10;;;;;;2091353;28;20036;-60
2021/01/19 01:31:05;;;;;;;4.03;2.60;;;10.00;61.00;;;;;;2085025;28;20120;-60
2021/01/19 01:32:26;;;;;;;7.20;2.70;;;9.90;60.90;;;;;;2090516;28;20021;-60
2021/01/19 01:33:47;;;;;;;4.45;2.38;;;9.90;60.80;;;;;;2086998;28;20029;-61
2021/01/19 01:35:10;;;;;;;5.10;2.22;;;9.90;60.70;;;;;;2094753;28;20032;-61
2021/01/19 01:36:39;;;;;;;7.07;2.47;;;9.90;60.70;;;;;;2096200;28;20348;-61
2021/01/19 01:38:00;;;;;;;5.57;2.70;;;9.90;60.60;;;;;;2095017;28;20413;-61
2021/01/19 01:39:21;;;;;;;5.35;2.50;;;9.90;60.70;;;;;;2095173;28;20709;-60
2021/01/19 01:40:42;;;;;;;3.15;2.20;;;10.00;60.60;;;;;;2081479;28;20028;-61
2021/01/19 01:42:03;;;;;;;6.45;2.65;;;10.00;60.60;;;;;;2084538;28;20053;-60
2021/01/19 01:43:24;;;;;;;5.22;2.53;;;9.90;60.40;;;;;;2086554;28;20440;-61
2021/01/19 01:44:44;;;;;;;5.63;2.67;;;9.90;60.30;;;;;;2090611;28;20025;-61
2021/01/19 01:46:08;;;;;;;3.08;2.05;;;9.90;60.30;;;;;;2093878;28;20020;-60
2021/01/19 01:47:30;;;;;;;4.97;2.45;;;9.90;60.10;;;;;;2093628;28;20021;-60
2021/01/19 01:48:51;;;;;;;5.53;2.78;;;9.90;60.20;;;;;;2090928;28;20087;-61
2021/01/19 01:50:12;;;;;;;6.50;2.45;;;9.90;60.10;;;;;;2087845;28;20120;-60
2021/01/19 01:51:34;;;;;;;3.65;2.22;;;9.90;60.10;;;;;;2094176;28;20021;-60
2021/01/19 01:52:55;;;;;;;3.13;2.30;;;9.90;59.90;;;;;;2090776;28;20091;-60
2021/01/19 01:54:16;;;;;;;5.60;2.67;;;9.90;59.90;;;;;;2090858;28;20056;-61
2021/01/19 01:55:37;;;;;;;5.93;2.40;;;9.90;59.70;;;;;;2093845;28;20036;-61
2021/01/19 01:56:58;;;;;;;4.78;2.38;;;9.80;59.70;;;;;;2083838;28;20097;-60
2021/01/19 01:58:19;;;;;;;6.32;2.55;;;9.80;59.70;;;;;;2086727;28;20029;-61
2021/01/19 01:59:40;;;;;;;4.95;2.55;;;9.80;59.70;;;;;;2089519;28;20080;-60
2021/01/19 02:01:02;;;;;;;5.03;2.92;;;9.80;59.60;;;;;;2095603;28;20107;-61
2021/01/19 02:02:23;;;;;;;5.80;2.35;;;9.80;59.70;;;;;;2086885;28;20025;-61
2021/01/19 02:03:45;;;;;;;7.15;2.58;;;9.80;59.60;;;;;;2086567;28;20029;-61
2021/01/19 02:05:06;;;;;;;7.07;2.40;;;9.80;59.60;;;;;;2083130;28;20033;-60
2021/01/19 02:06:28;;;;;;;4.40;2.42;;;9.80;59.60;;;;;;2092004;28;20464;-59
2021/01/19 02:08:16;;;;;;;4.35;2.42;;;9.70;59.60;;;;;;2095958;28;20128;-61
2021/01/19 02:09:46;;;;;;;5.80;2.83;;;9.70;59.40;;;;;;2088720;28;20040;-59
2021/01/19 02:11:41;;;;;;;6.32;2.50;;;9.70;59.50;;;;;;2088774;28;20036;-59
2021/01/19 02:13:23;;;;;;;7.18;3.20;;;9.70;59.40;;;;;;2094136;28;20029;-60
2021/01/19 02:14:54;;;;;;;8.00;2.67;;;9.70;59.40;;;;;;2089758;28;20055;-60
2021/01/19 02:16:44;;;;;;;7.47;2.83;;;9.70;59.50;;;;;;2089993;28;20030;-60
2021/01/19 02:18:28;;;;;;;7.05;2.80;;;9.70;59.40;;;;;;2090933;28;20025;-61
2021/01/19 02:19:58;;;;;;;8.48;3.28;;;9.70;59.40;;;;;;2090407;28;20036;-60
2021/01/19 02:21:44;;;;;;;5.22;2.90;;;9.70;59.40;;;;;;2089186;28;20451;-60
2021/01/19 02:23:24;;;;;;;9.73;3.65;;;9.60;59.40;;;;;;2089737;28;20029;-60
2021/01/19 02:25:11;;;;;;;9.88;3.33;;;9.70;59.40;;;;;;2089879;28;20025;-60
2021/01/19 02:27:04;;;;;;;6.03;3.13;;;9.60;59.30;;;;;;2088224;28;20029;-59
2021/01/19 02:28:34;;;;;;;6.10;2.53;;;9.60;59.30;;;;;;2092108;28;20082;-60
2021/01/19 02:30:01;;;;;;;4.55;2.53;;;9.60;59.50;;;;;;2090385;28;20036;-60
2021/01/19 02:31:43;;;;;;;3.33;2.55;;;9.60;59.50;;;;;;2090982;28;20032;-59
2021/01/19 02:33:14;;;;;;;4.97;2.78;;;9.50;59.40;;;;;;2095349;28;20021;-59
2021/01/19 02:34:47;;;;;;;3.13;2.72;;;9.50;59.40;;;;;;2090268;28;20055;-60
2021/01/19 02:36:19;;;;;;;6.57;2.67;;;9.50;59.40;;;;;;2082706;28;20017;-59
2021/01/19 02:37:53;;;;;;;2.92;2.42;;;9.50;59.40;;;;;;2096642;28;20024;-60
2021/01/19 02:39:38;;;;;;;7.28;3.20;;;9.50;59.50;;;;;;2085758;28;20033;-61
2021/01/19 02:41:01;;;;;;;4.88;2.80;;;9.50;59.60;;;;;;2095920;28;20040;-61
2021/01/19 02:42:26;;;;;;;6.35;2.53;;;9.40;59.60;;;;;;2086866;28;20041;-60
2021/01/19 02:43:56;;;;;;;3.70;2.75;;;9.50;59.60;;;;;;2089019;28;20048;-60
2021/01/19 02:45:17;;;;;;;7.10;2.95;;;9.40;59.60;;;;;;2089569;28;20515;-60
2021/01/19 02:46:38;;;;;;;6.45;2.72;;;9.40;59.60;;;;;;2089647;28;20104;-61
2021/01/19 02:47:59;;;;;;;5.05;2.47;;;9.40;59.60;;;;;;2091992;28;20375;-60
2021/01/19 02:49:21;;;;;;;6.50;2.97;;;9.40;59.70;;;;;;2086444;28;20033;-61
2021/01/19 02:50:43;;;;;;;7.95;2.95;;;9.40;59.60;;;;;;2094380;28;20051;-60
2021/01/19 02:52:04;;;;;;;3.92;2.60;;;9.40;59.70;;;;;;2084883;28;20025;-60
2021/01/19 02:53:26;;;;;;;8.32;2.92;;;9.40;59.70;;;;;;2089532;28;20025;-60
2021/01/19 02:54:47;;;;;;;4.60;2.83;;;9.40;59.70;;;;;;2089216;28;20029;-61
2021/01/19 02:56:19;;;;;;;7.53;2.75;;;9.40;59.80;;;;;;2095531;28;20024;-60
2021/01/19 02:58:04;;;;;;;5.75;2.58;;;9.40;59.70;;;;;;2088743;28;20090;-60
2021/01/19 02:59:51;;;;;;;5.53;2.85;;;9.40;59.60;;;;;;2084907;28;20593;-61
2021/01/19 03:01:22;;;;;;;6.03;3.10;;;9.40;59.60;;;;;;2091260;28;20530;-60
2021/01/19 03:02:46;;;;;;;5.53;3.03;;;9.40;59.70;;;;;;2095357;28;20113;-61
2021/01/19 03:04:09;;;;;;;5.78;2.63;;;9.40;59.70;;;;;;2086038;28;20048;-60
2021/01/19 03:05:30;;;;;;;7.90;3.05;;;9.40;59.80;;;;;;2089510;28;20056;-60
2021/01/19 03:06:52;;;;;;;6.68;2.80;;;9.40;59.80;;;;;;2090152;28;20035;-60
2021/01/19 03:08:14;;;;;;;8.40;3.33;;;9.40;59.90;;;;;;2089501;28;20064;-61
2021/01/19 03:09:41;;;;;;;10.35;3.40;;;9.40;60.00;;;;;;2090963;28;20025;-60
2021/01/19 03:11:04;;;;;;;6.63;3.08;;;9.30;60.00;;;;;;2088100;28;20026;-60
2021/01/19 03:12:26;;;;;;;4.38;2.80;;;9.40;60.00;;;;;;2089564;28;20112;-61
2021/01/19 03:13:50;;;;;;;6.55;2.88;;;9.40;60.10;;;;;;2085502;28;20065;-61
2021/01/19 03:15:12;;;;;;;6.05;2.83;;;9.40;60.00;;;;;;2088737;28;20025;-59
2021/01/19 03:16:33;;;;;;;6.68;2.90;;;9.30;60.00;;;;;;2091488;28;20041;-61
2021/01/19 03:17:55;;;;;;;7.00;3.13;;;9.40;60.20;;;;;;2089006;28;20037;-61
2021/01/19 03:19:19;;;;;;;7.65;2.80;;;9.30;60.20;;;;;;2085746;28;20051;-59
2021/01/19 03:20:40;;;;;;;7.70;3.05;;;9.30;60.20;;;;;;2088576;28;20104;-61
2021/01/19 03:22:02;;;;;;;3.47;3.00;;;9.40;60.40;;;;;;2088999;28;20029;-60
2021/01/19 03:23:22;;;;;;;4.13;2.72;;;9.40;60.40;;;;;;2085441;28;20091;-60
2021/01/19 03:24:43;;;;;;;6.25;2.60;;;9.30;60.40;;;;;;2089963;28;20091;-61
2021/01/19 03:26:06;;;;;;;6.07;2.80;;;9.30;61.20;;;;;;2092729;28;20024;-61
2021/01/19 03:27:27;;;;;;;7.20;3.10;;;9.40;60.60;;;;;;2087951;28;20052;-60
2021/01/19 03:28:48;;;;;;;5.85;3.13;;;9.40;60.60;;;;;;2090115;28;20033;-60
2021/01/19 03:30:09;;;;;;;8.32;3.53;;;9.40;60.60;;;;;;2086221;28;20025;-60
2021/01/19 03:31:31;;;;;;;7.78;3.13;;;9.40;60.60;;;;;;2092659;28;20087;-61
2021/01/19 03:32:52;;;;;;;5.95;3.15;;;9.40;60.60;;;;;;2094513;28;20092;-59
2021/01/19 03:34:13;;;;;;;5.70;2.50;;;9.40;60.60;;;;;;2087049;28;20080;-61
2021/01/19 03:35:39;;;;;;;7.95;3.50;;;9.40;60.60;;;;;;2089616;28;20109;-60
2021/01/19 03:37:00;;;;;;;7.47;3.13;;;9.40;60.60;;;;;;2091201;28;20447;-61
2021/01/19 03:38:22;;;;;;;5.82;2.80;;;9.40;60.60;;;;;;2086438;28;20020;-61
2021/01/19 03:39:42;;;;;;;7.45;3.25;;;9.40;60.60;;;;;;2090697;28;20069;-60
2021/01/19 03:41:03;;;;;;;7.38;2.92;;;9.40;60.70;;;;;;2091847;28;20036;-60
2021/01/19 03:42:24;;;;;;;4.97;3.08;;;9.40;60.70;;;;;;2089994;28;20028;-60
2021/01/19 03:43:46;;;;;;;6.28;2.72;;;9.40;60.60;;;;;;2086276;28;20061;-61
2021/01/19 03:45:07;;;;;;;4.43;2.80;;;9.40;60.60;;;;;;2083895;28;20029;-61
2021/01/19 03:46:28;;;;;;;7.57;2.95;;;9.40;60.70;;;;;;2092218;28;20017;-60
2021/01/19 03:47:49;;;;;;;5.82;2.90;;;9.40;60.80;;;;;;2092968;28;20029;-61
2021/01/19 03:49:10;;;;;;;10.63;2.92;;;9.50;60.80;;;;;;2088203;28;20455;-61
2021/01/19 03:50:31;;;;;;;6.93;2.95;;;9.50;60.80;;;;;;2088941;28;20116;-61
2021/01/19 03:51:52;;;;;;;8.45;3.10;;;9.40;60.80;;;;;;2090777;28;20025;-60
2021/01/19 03:53:13;;;;;;;6.32;2.78;;;9.50;60.80;;;;;;2095524;28;20055;-60
2021/01/19 03:54:34;;;;;;;8.00;3.28;;;9.50;60.80;;;;;;2088155;28;20056;-60
2021/01/19 03:55:55;;;;;;;11.77;3.63;;;9.50;60.70;;;;;;2092906;28;20016;-61
2021/01/19 03:57:16;;;;;;;6.10;3.05;;;9.50;60.70;;;;;;2088657;28;20644;-60
2021/01/19 03:58:36;;;;;;;6.05;3.08;;;9.50;60.80;;;;;;2090932;28;20021;-60
2021/01/19 03:59:57;;;;;;;7.80;3.10;;;9.50;60.80;;;;;;2089074;28;20087;-61
2021/01/19 04:01:18;;;;;;;5.22;2.60;;;9.50;60.80;;;;;;2090248;28;20448;-61
2021/01/19 04:02:40;;;;;;;5.18;2.60;;;9.50;60.80;;;;;;2092018;28;20166;-60
2021/01/19 04:04:01;;;;;;;4.90;3.08;;;9.50;60.90;;;;;;2086688;28;20121;-60
2021/01/19 04:05:22;;;;;;;4.82;2.72;;;9.50;60.90;;;;;;2084336;28;20068;-60
2021/01/19 04:06:42;;;;;;;5.35;2.42;;;9.50;60.90;;;;;;2088278;28;20406;-61
2021/01/19 04:08:03;;;;;;;6.30;2.58;;;9.50;60.90;;;;;;2088415;28;20033;-60
2021/01/19 04:09:24;;;;;;;5.90;2.60;;;9.50;60.90;;;;;;2089700;28;20048;-61
2021/01/19 04:10:48;;;;;;;5.68;2.55;;;9.50;60.90;;;;;;2087706;28;20032;-60
2021/01/19 04:12:09;;;;;;;5.43;2.72;;;9.50;60.90;;;;;;2082646;28;20041;-61
2021/01/19 04:13:30;;;;;;;6.75;2.88;;;9.50;60.90;;;;;;2083760;28;20087;-59
2021/01/19 04:14:51;;;;;;;6.47;3.05;;;9.60;61.00;;;;;;2088417;28;20025;-60
2021/01/19 04:16:14;;;;;;;3.28;2.10;;;9.60;61.00;;;;;;2089440;28;20029;-61
2021/01/19 04:17:37;;;;;;;3.95;2.28;;;9.60;60.90;;;;;;2090515;28;20024;-61
2021/01/19 04:18:57;;;;;;;5.90;2.70;;;9.60;61.00;;;;;;2089541;28;20065;-61
2021/01/19 04:20:18;;;;;;;3.63;2.15;;;9.60;61.10;;;;;;2089877;28;20104;-61
2021/01/19 04:21:39;;;;;;;4.10;2.25;;;9.60;61.10;;;;;;2081238;28;20112;-61
2021/01/19 04:23:00;;;;;;;4.88;2.50;;;9.60;61.10;;;;;;2089365;28;20056;-60
2021/01/19 04:24:21;;;;;;;7.20;2.28;;;9.60;61.20;;;;;;2090106;28;20115;-61
2021/01/19 04:25:46;;;;;;;4.72;2.33;;;9.60;61.20;;;;;;2090886;28;20627;-61
2021/01/19 04:27:07;;;;;;;5.53;2.50;;;9.70;61.10;;;;;;2082787;28;20037;-60
2021/01/19 04:28:28;;;;;;;5.82;2.35;;;9.70;61.10;;;;;;2091235;28;20060;-59
2021/01/19 04:29:49;;;;;;;4.07;2.38;;;9.70;61.10;;;;;;2089280;28;20183;-60
2021/01/19 04:31:10;;;;;;;4.10;2.55;;;9.70;61.00;;;;;;2089698;28;20020;-59
2021/01/19 04:32:31;;;;;;;6.57;2.40;;;9.70;61.10;;;;;;2088361;28;20591;-59
2021/01/19 04:33:52;;;;;;;3.25;1.90;;;9.70;61.10;;;;;;2089376;28;20036;-59
2021/01/19 04:35:13;;;;;;;4.28;2.30;;;9.80;61.20;;;;;;2080056;28;20108;-60
2021/01/19 04:36:33;;;;;;;4.65;2.35;;;9.70;61.10;;;;;;2089151;28;20032;-60
2021/01/19 04:37:54;;;;;;;7.13;2.50;;;9.80;61.10;;;;;;2090846;28;20442;-60
2021/01/19 04:39:15;;;;;;;5.13;2.42;;;9.80;61.20;;;;;;2089068;28;20044;-60
2021/01/19 04:40:36;;;;;;;5.07;2.53;;;9.80;61.30;;;;;;2090061;28;20104;-60
2021/01/19 04:41:57;;;;;;;6.35;2.38;;;9.80;61.30;;;;;;2087217;28;20036;-61
2021/01/19 04:43:20;;;;;;;7.28;2.10;;;9.80;61.30;;;;;;2089007;28;20043;-61
2021/01/19 04:44:41;;;;;;;4.97;2.30;;;9.80;61.30;;;;;;2089918;28;20455;-61
2021/01/19 04:46:03;;;;;;;5.38;2.38;;;9.80;61.40;;;;;;2090456;28;20028;-61
2021/01/19 04:47:26;;;;;;;5.05;2.28;;;9.80;61.50;;;;;;2091381;28;20033;-60
2021/01/19 04:48:48;;;;;;;7.32;2.50;;;9.80;61.60;;;;;;2089487;28;20036;-60
2021/01/19 04:50:11;;;;;;;5.22;2.42;;;9.80;61.70;;;;;;2091360;28;20025;-61
2021/01/19 04:51:34;;;;;;;5.85;2.17;;;9.80;61.70;;;;;;2092484;28;20020;-61
2021/01/19 04:52:58;;;;;;;4.45;2.15;;;9.80;61.80;;;;;;2092146;28;20025;-61
2021/01/19 04:54:24;;;;;;;5.40;2.10;;;9.80;61.90;;;;;;2087700;28;20029;-61
2021/01/19 04:55:52;;;;;;;4.28;2.17;;;9.80;61.90;;;;;;2091174;28;20017;-61
2021/01/19 04:57:20;;;;;;;4.35;2.35;;;9.80;61.90;;;;;;2091498;28;20033;-61
2021/01/19 04:58:43;;;;;;;4.15;2.00;;;9.80;62.00;;;;;;2091907;28;20029;-60
2021/01/19 05:00:07;;;;;;;5.28;2.50;;;9.80;62.00;;;;;;2092325;28;20033;-61
2021/01/19 05:01:34;;;;;;;5.05;2.00;;;9.80;62.10;;;;;;2093681;28;20061;-61
2021/01/19 05:03:19;;;;;;;4.85;1.90;;;9.80;62.10;;;;;;2097388;28;20459;-61
2021/01/19 05:04:56;;;;;;;3.15;1.88;;;9.80;62.10;;;;;;2090227;28;20036;-61
2021/01/19 05:06:41;;;;;;;5.57;2.20;;;9.80;62.20;;;;;;2092929;28;20163;-61
2021/01/19 05:08:02;;;;;;;4.28;2.08;;;9.80;62.50;;;;;;2084920;28;20092;-61
2021/01/19 05:09:35;;;;;;;3.47;1.90;;;9.80;62.40;;;;;;2090415;28;20025;-61
2021/01/19 05:10:58;;;;;;;4.53;1.83;;;9.80;62.60;;;;;;2091625;28;20079;-61
2021/01/19 05:12:24;;;;;;;4.38;1.83;;;9.80;62.70;;;;;;2090504;28;20052;-60
2021/01/19 05:14:02;;;;;;;4.22;2.42;;;9.80;63.00;;;;;;2089307;28;20044;-61
2021/01/19 05:15:24;;;;;;;5.75;2.10;;;9.80;63.40;;;;;;2087176;28;20027;-61
2021/01/19 05:16:47;;;;;;;3.85;2.20;;;9.80;63.30;;;;;;2089325;28;20439;-61
2021/01/19 05:18:10;;;;;;;2.63;1.95;;;9.80;63.50;;;;;;2091764;28;20037;-61
2021/01/19 05:19:31;;;;;;;3.08;1.92;;;9.80;63.70;;;;;;2091357;28;20033;-61
2021/01/19 05:20:52;;;;;;;4.80;2.35;;;9.80;63.70;;;;;;2089941;28;20032;-61
2021/01/19 05:22:16;;;;;;;3.10;2.40;;;9.80;63.90;;;;;;2090154;28;20036;-61
2021/01/19 05:23:37;;;;;;;5.65;2.20;;;9.80;64.00;;;;;;2085947;28;20079;-61
2021/01/19 05:24:58;;;;;;;3.88;1.90;;;9.80;64.00;;;;;;2089399;28;20579;-61
2021/01/19 05:26:19;;;;;;;3.65;2.05;;;9.80;64.10;;;;;;2093886;28;20186;-61
2021/01/19 05:27:40;;;;;;;6.20;2.30;;;9.80;64.20;;;;;;2093466;28;20531;-61
2021/01/19 05:29:04;;;;;;;4.57;2.03;;;9.70;64.20;;;;;;2093706;28;20090;-59
2021/01/19 05:30:25;;;;;;;6.40;2.83;;;9.70;64.30;;;;;;2087571;28;20451;-59
2021/01/19 05:31:51;;;;;;;4.28;2.03;;;9.70;64.50;;;;;;2091272;28;20345;-59
2021/01/19 05:33:15;;;;;;;3.90;2.17;;;9.70;64.60;;;;;;2095521;28;20474;-60
2021/01/19 05:34:37;;;;;;;4.20;2.05;;;9.70;64.80;;;;;;2090518;28;20025;-60
2021/01/19 05:36:08;;;;;;;3.95;1.83;;;9.70;65.00;;;;;;2094205;28;20025;-60
2021/01/19 05:37:29;;;;;;;3.75;2.10;;;9.70;65.40;;;;;;2087665;28;20033;-61
2021/01/19 05:38:55;;;;;;;4.75;2.00;;;9.70;65.30;;;;;;2090333;28;20029;-61
2021/01/19 05:40:16;;;;;;;3.63;2.03;;;9.70;65.30;;;;;;2088091;28;20040;-61
2021/01/19 05:41:40;;;;;;;4.20;2.40;;;9.70;65.10;;;;;;2092347;28;20462;-60
2021/01/19 05:43:09;;;;;;;4.97;2.20;;;9.70;65.60;;;;;;2091150;28;20029;-60
2021/01/19 05:44:31;;;;;;;7.25;2.28;;;9.70;65.70;;;;;;2089097;28;20032;-59
2021/01/19 05:45:52;;;;;;;3.97;2.40;;;9.70;65.30;;;;;;2081741;28;20534;-61
2021/01/19 05:47:13;;;;;;;3.70;2.20;;;9.70;65.50;;;;;;2083380;28;20064;-60
2021/01/19 05:48:37;;;;;;;3.55;2.30;;;9.70;66.50;;;;;;2085463;28;20029;-61
2021/01/19 05:50:00;;;;;;;2.58;2.35;;;9.70;65.80;;;;;;2088358;28;20017;-61
2021/01/19 05:51:23;;;;;;;3.63;2.40;;;9.70;65.80;;;;;;2089800;28;20120;-60
2021/01/19 05:52:46;;;;;;;3.65;2.58;;;9.70;65.60;;;;;;2090873;28;20147;-60
2021/01/19 05:54:10;;;;;;;4.85;2.55;;;9.70;66.70;;;;;;2088458;28;20111;-60
2021/01/19 05:55:30;;;;;;;7.22;2.15;;;9.60;66.10;;;;;;2090942;28;20107;-60
2021/01/19 05:56:59;;;;;;;2.75;2.55;;;9.60;66.00;;;;;;2091034;28;20080;-60
2021/01/19 05:58:20;;;;;;;3.60;2.55;;;9.60;66.10;;;;;;2090185;28;20447;-60
2021/01/19 05:59:43;;;;;;;3.10;2.33;;;9.60;66.30;;;;;;2089879;28;20025;-61
2021/01/19 06:01:04;;;;;;;3.80;2.25;;;9.60;66.20;;;;;;2087146;28;20064;-59
2021/01/19 06:02:45;;;;;;;2.10;1.88;;;9.60;66.20;;;;;;2093636;28;20075;-59
2021/01/19 06:04:06;;;;;;;3.92;2.35;;;9.60;66.50;;;;;;2089754;28;20041;-59
2021/01/19 06:05:31;;;;;;;4.05;2.20;;;9.60;66.20;;;;;;2087563;28;20391;-61
2021/01/19 06:06:55;;;;;;;5.53;2.22;;;9.60;66.70;;;;;;2090152;28;20087;-61
2021/01/19 06:08:23;;;;;;;2.45;1.90;;;9.60;66.90;;;;;;2086581;28;20025;-60
2021/01/19 06:09:45;;;;;;;3.38;1.90;;;9.60;67.00;;;;;;2091232;28;20037;-60
2021/01/19 06:11:08;;;;;;;2.92;2.00;;;9.60;66.80;;;;;;2090515;28;20021;-61
2021/01/19 06:12:34;;;;;;;4.07;1.95;;;9.50;67.20;;;;;;2090282;28;20028;-61
2021/01/19 06:13:56;;;;;;;2.55;1.67;;;9.50;67.20;;;;;;2087503;28;20083;-61
2021/01/19 06:15:27;;;;;;;2.08;1.85;;;9.50;67.20;;;;;;2085837;28;20037;-61
2021/01/19 06:16:48;;;;;;;2.50;1.73;;;9.50;67.40;;;;;;2092191;28;20383;-60
2021/01/19 06:18:09;;;;;;;2.58;1.80;;;9.50;67.10;;;;;;2091838;28;20119;-61
2021/01/19 06:19:31;;;;;;;3.35;1.70;;;9.50;67.20;;;;;;2090187;28;20456;-62
2021/01/19 06:20:52;;;;;;;2.63;1.58;;;9.50;67.60;;;;;;2089714;28;20025;-60
2021/01/19 06:22:15;;;;;;;3.10;1.90;;;9.50;67.40;;;;;;2088144;28;20029;-61
2021/01/19 06:23:45;;;;;;;1.90;1.75;;;9.50;67.40;;;;;;2087169;28;20075;-61
2021/01/19 06:25:12;;;;;;;2.25;1.92;;;9.50;68.10;;;;;;2082613;28;20037;-61
2021/01/19 06:26:40;;;;;;;2.20;1.60;;;9.50;68.00;;;;;;2092073;28;20032;-61
2021/01/19 06:28:08;;;;;;;2.65;1.50;;;9.50;67.90;;;;;;2093795;28;20059;-61
2021/01/19 06:29:31;;;;;;;3.35;1.98;;;9.50;69.00;;;;;;2083216;28;20033;-61
2021/01/19 06:30:52;;;;;;;1.73;1.42;;;9.50;68.20;;;;;;2092497;28;20044;-61
2021/01/19 06:32:15;;;;;;;4.35;1.60;;;9.50;67.90;;;;;;2084395;28;20065;-61
2021/01/19 06:33:40;;;;;;;3.45;1.50;;;9.50;68.10;;;;;;2087521;28;20033;-61
2021/01/19 06:35:18;;;;;;;2.13;1.40;;;9.50;68.20;;;;;;2088564;28;20031;-61
2021/01/19 06:36:39;;;;;;;2.10;1.30;;;9.50;68.70;;;;;;2087749;28;20032;-61
2021/01/19 06:38:05;;;;;;;1.30;1.10;;;9.50;68.20;;;;;;2088991;28;20073;-60
2021/01/19 06:39:41;;;;;;;2.45;1.83;;;9.50;68.40;;;;;;2088754;28;20041;-61
2021/01/19 06:41:02;;;;;;;1.40;1.30;;;9.50;68.80;;;;;;2083985;28;20036;-59
2021/01/19 06:42:28;;;;;;;1.63;1.52;;;9.50;68.50;;;;;;2084707;28;20115;-61
2021/01/19 06:43:59;;;;;;;2.25;1.58;;;9.50;68.90;;;;;;2085252;28;20045;-61
2021/01/19 06:45:20;;;;;;;1.88;1.50;;;9.40;69.00;;;;;;2088764;28;20017;-60
2021/01/19 06:46:48;;;;;;;3.20;1.42;;;9.40;68.90;;;;;;2091669;28;20029;-62
2021/01/19 06:48:10;;;;;;;2.95;1.67;;;9.40;68.90;;;;;;2094759;28;20359;-60
2021/01/19 06:49:37;;;;;;;1.65;1.55;;;9.40;69.00;;;;;;2090119;28;20025;-61
2021/01/19 06:51:02;;;;;;;2.05;1.73;;;9.40;69.10;;;;;;2089207;28;20017;-61
2021/01/19 06:52:22;;;;;;;2.45;2.13;;;9.40;69.00;;;;;;2087561;28;20096;-60
2021/01/19 06:53:59;;;;;;;2.05;1.60;;;9.40;69.10;;;;;;2085812;28;20041;-60
2021/01/19 06:55:22;;;;;;;3.03;1.67;;;9.40;69.50;;;;;;2084849;28;20032;-61
2021/01/19 06:56:54;;;;;;;1.98;1.35;;;9.40;69.20;;;;;;2090019;28;20024;-61
2021/01/19 06:58:36;;;;;;;1.67;1.58;;;9.40;69.50;;;;;;2084003;28;20029;-61
2021/01/19 07:00:18;;;;;;;2.15;1.60;;;9.40;70.30;;;;;;2088370;28;20041;-61
2021/01/19 07:01:43;;;;;;;2.67;1.50;;;9.40;69.90;;;;;;2088725;28;20341;-61
2021/01/19 07:03:17;;;;;;;1.70;1.60;;;9.40;69.90;;;;;;2088516;28;20064;-61
2021/01/19 07:04:46;;;;;;;2.33;1.52;;;9.40;70.20;;;;;;2088020;28;20237;-60
2021/01/19 07:06:13;;;;;;;1.60;1.40;;;9.40;70.20;;;;;;2093439;28;20047;-61
2021/01/19 07:07:37;;;;;;;1.88;1.58;;;9.40;69.80;;;;;;2086750;28;20247;-61
2021/01/19 07:09:16;;;;;;;2.00;1.63;;;9.40;70.10;;;;;;2089852;28;20373;-61
2021/01/19 07:10:51;;;;;;;1.60;1.50;;;9.40;69.80;;;;;;2086822;28;20115;-62
2021/01/19 07:12:17;;;;;;;3.28;1.75;;;9.30;70.60;;;;;;2084850;28;20021;-61
2021/01/19 07:13:41;;;;;;;3.33;1.50;;;9.30;70.50;;;;;;2084394;28;20061;-60
2021/01/19 07:15:02;;;;;;;2.45;1.40;;;9.30;70.10;;;;;;2087873;28;20032;-61
2021/01/19 07:16:31;;;;;;;2.58;1.60;;;9.30;70.10;;;;;;2089763;28;20152;-61
2021/01/19 07:18:30;;;;;;;1.92;1.50;;;9.30;70.00;;;;;;2090100;28;20044;-60
2021/01/19 07:19:51;;;;;;;2.13;1.60;;;9.30;71.00;;;;;;2087972;28;20037;-61
2021/01/19 07:21:14;;;;;;;1.92;1.55;;;9.20;70.10;;;;;;2087271;28;20190;-60
2021/01/19 07:22:50;;;;;;;1.58;1.30;;;9.30;70.20;;;;;;2088304;28;20037;-60
2021/01/19 07:24:24;;;;;;;1.67;1.42;;;9.20;70.20;;;;;;2088476;28;20376;-59
2021/01/19 07:25:45;;;;;;;3.05;1.27;;;9.20;70.40;;;;;;2089594;28;20102;-60